sensor_id;sensor_type;location;lat;lon;timestamp;temperature;humidity
70830;SHT30;58451;51.550;7.208;2024-02-26T00:00:09;5.79;71.08
70830;SHT30;58451;51.550;7.208;2024-02-26T00:01:42;5.80;71.03
70830;SHT30;58451;51.550;7.208;2024-02-26T00:03:16;5.80;71.02
70830;SHT30;58451;51.550;7.208;2024-02-26T00:04:49;5.80;71.00
70830;SHT30;58451;51.550;7.208;2024-02-26T00:06:21;5.79;71.02
70830;SHT30;58451;51.550;7.208;2024-02-26T00:07:53;5.79;71.02
70830;SHT30;58451;51.550;7.208;2024-02-26T00:09:25;5.80;71.00
70830;SHT30;58451;51.550;7.208;2024-02-26T00:10:57;5.80;70.98
70830;SHT30;58451;51.550;7.208;2024-02-26T00:12:29;5.78;70.93
70830;SHT30;58451;51.550;7.208;2024-02-26T00:14:01;5.79;70.98
70830;SHT30;58451;51.550;7.208;2024-02-26T00:15:33;5.79;71.00
70830;SHT30;58451;51.550;7.208;2024-02-26T00:17:06;5.79;71.00
70830;SHT30;58451;51.550;7.208;2024-02-26T00:18:38;5.78;71.02
70830;SHT30;58451;51.550;7.208;2024-02-26T00:20:10;5.78;71.02
70830;SHT30;58451;51.550;7.208;2024-02-26T00:21:43;5.78;71.00
70830;SHT30;58451;51.550;7.208;2024-02-26T00:23:15;5.78;71.02
70830;SHT30;58451;51.550;7.208;2024-02-26T00:24:47;5.79;71.00
70830;SHT30;58451;51.550;7.208;2024-02-26T00:26:19;5.78;71.03
70830;SHT30;58451;51.550;7.208;2024-02-26T00:27:51;5.78;71.02
70830;SHT30;58451;51.550;7.208;2024-02-26T00:29:23;5.77;71.02
70830;SHT30;58451;51.550;7.208;2024-02-26T00:30:55;5.78;71.00
70830;SHT30;58451;51.550;7.208;2024-02-26T00:32:27;5.77;71.02
70830;SHT30;58451;51.550;7.208;2024-02-26T00:34:00;5.77;71.02
70830;SHT30;58451;51.550;7.208;2024-02-26T00:35:32;5.76;71.05
70830;SHT30;58451;51.550;7.208;2024-02-26T00:37:04;5.77;71.07
70830;SHT30;58451;51.550;7.208;2024-02-26T00:38:36;5.76;71.10
70830;SHT30;58451;51.550;7.208;2024-02-26T00:40:08;5.76;71.08
70830;SHT30;58451;51.550;7.208;2024-02-26T00:41:40;5.77;71.10
70830;SHT30;58451;51.550;7.208;2024-02-26T00:43:13;5.76;71.18
70830;SHT30;58451;51.550;7.208;2024-02-26T00:44:44;5.76;71.13
70830;SHT30;58451;51.550;7.208;2024-02-26T00:46:16;5.77;71.13
70830;SHT30;58451;51.550;7.208;2024-02-26T00:47:48;5.76;71.17
70830;SHT30;58451;51.550;7.208;2024-02-26T00:49:21;5.76;71.20
70830;SHT30;58451;51.550;7.208;2024-02-26T00:50:53;5.76;71.22
70830;SHT30;58451;51.550;7.208;2024-02-26T00:52:25;5.78;71.27
70830;SHT30;58451;51.550;7.208;2024-02-26T00:53:57;5.77;71.27
70830;SHT30;58451;51.550;7.208;2024-02-26T00:55:30;5.77;71.22
70830;SHT30;58451;51.550;7.208;2024-02-26T00:57:02;5.77;71.28
70830;SHT30;58451;51.550;7.208;2024-02-26T00:58:34;5.78;71.27
70830;SHT30;58451;51.550;7.208;2024-02-26T01:00:06;5.79;71.27
70830;SHT30;58451;51.550;7.208;2024-02-26T01:01:40;5.79;71.30
70830;SHT30;58451;51.550;7.208;2024-02-26T01:03:12;5.80;71.32
70830;SHT30;58451;51.550;7.208;2024-02-26T01:04:44;5.80;71.30
70830;SHT30;58451;51.550;7.208;2024-02-26T01:06:16;5.80;71.32
70830;SHT30;58451;51.550;7.208;2024-02-26T01:07:48;5.81;71.35
70830;SHT30;58451;51.550;7.208;2024-02-26T01:09:20;5.80;71.30
70830;SHT30;58451;51.550;7.208;2024-02-26T01:10:52;5.82;71.32
70830;SHT30;58451;51.550;7.208;2024-02-26T01:12:24;5.84;71.33
70830;SHT30;58451;51.550;7.208;2024-02-26T01:13:56;5.84;71.30
70830;SHT30;58451;51.550;7.208;2024-02-26T01:15:28;5.82;71.33
70830;SHT30;58451;51.550;7.208;2024-02-26T01:17:01;5.82;71.32
70830;SHT30;58451;51.550;7.208;2024-02-26T01:18:33;5.83;71.37
70830;SHT30;58451;51.550;7.208;2024-02-26T01:20:06;5.84;71.38
70830;SHT30;58451;51.550;7.208;2024-02-26T01:21:40;5.83;71.32
70830;SHT30;58451;51.550;7.208;2024-02-26T01:23:12;5.83;71.30
70830;SHT30;58451;51.550;7.208;2024-02-26T01:24:44;5.84;71.32
70830;SHT30;58451;51.550;7.208;2024-02-26T01:26:16;5.84;71.33
70830;SHT30;58451;51.550;7.208;2024-02-26T01:27:48;5.84;71.33
70830;SHT30;58451;51.550;7.208;2024-02-26T01:29:20;5.85;71.30
70830;SHT30;58451;51.550;7.208;2024-02-26T01:30:52;5.85;71.30
70830;SHT30;58451;51.550;7.208;2024-02-26T01:32:24;5.86;71.30
70830;SHT30;58451;51.550;7.208;2024-02-26T01:33:56;5.84;71.30
70830;SHT30;58451;51.550;7.208;2024-02-26T01:35:28;5.85;71.25
70830;SHT30;58451;51.550;7.208;2024-02-26T01:37:00;5.85;71.23
70830;SHT30;58451;51.550;7.208;2024-02-26T01:38:32;5.87;71.25
70830;SHT30;58451;51.550;7.208;2024-02-26T01:40:05;5.88;71.27
70830;SHT30;58451;51.550;7.208;2024-02-26T01:41:39;5.89;71.30
70830;SHT30;58451;51.550;7.208;2024-02-26T01:43:12;5.91;71.20
70830;SHT30;58451;51.550;7.208;2024-02-26T01:44:44;5.92;71.23
70830;SHT30;58451;51.550;7.208;2024-02-26T01:46:16;5.92;71.23
70830;SHT30;58451;51.550;7.208;2024-02-26T01:47:52;5.93;71.35
70830;SHT30;58451;51.550;7.208;2024-02-26T01:49:26;5.94;71.35
70830;SHT30;58451;51.550;7.208;2024-02-26T01:50:58;5.95;71.32
70830;SHT30;58451;51.550;7.208;2024-02-26T01:52:30;5.96;71.33
70830;SHT30;58451;51.550;7.208;2024-02-26T01:54:02;5.97;71.32
70830;SHT30;58451;51.550;7.208;2024-02-26T01:55:35;5.96;71.27
70830;SHT30;58451;51.550;7.208;2024-02-26T01:57:11;5.95;71.22
70830;SHT30;58451;51.550;7.208;2024-02-26T01:58:45;5.95;71.17
70830;SHT30;58451;51.550;7.208;2024-02-26T02:00:17;5.95;71.20
70830;SHT30;58451;51.550;7.208;2024-02-26T02:01:52;5.95;71.22
70830;SHT30;58451;51.550;7.208;2024-02-26T02:03:29;5.94;71.22
70830;SHT30;58451;51.550;7.208;2024-02-26T02:05:02;5.94;71.23
70830;SHT30;58451;51.550;7.208;2024-02-26T02:06:36;5.94;71.23
70830;SHT30;58451;51.550;7.208;2024-02-26T02:08:10;5.94;71.20
70830;SHT30;58451;51.550;7.208;2024-02-26T02:09:43;5.95;71.23
70830;SHT30;58451;51.550;7.208;2024-02-26T02:11:15;5.95;71.22
70830;SHT30;58451;51.550;7.208;2024-02-26T02:12:48;5.95;71.22
70830;SHT30;58451;51.550;7.208;2024-02-26T02:14:20;5.94;71.13
70830;SHT30;58451;51.550;7.208;2024-02-26T02:15:52;5.93;71.15
70830;SHT30;58451;51.550;7.208;2024-02-26T02:17:24;5.94;71.15
70830;SHT30;58451;51.550;7.208;2024-02-26T02:18:57;5.95;71.13
70830;SHT30;58451;51.550;7.208;2024-02-26T02:20:33;5.94;71.12
70830;SHT30;58451;51.550;7.208;2024-02-26T02:22:06;5.95;71.07
70830;SHT30;58451;51.550;7.208;2024-02-26T02:23:38;5.95;71.03
70830;SHT30;58451;51.550;7.208;2024-02-26T02:25:10;5.96;71.03
70830;SHT30;58451;51.550;7.208;2024-02-26T02:26:42;5.96;71.00
70830;SHT30;58451;51.550;7.208;2024-02-26T02:28:14;5.97;70.98
70830;SHT30;58451;51.550;7.208;2024-02-26T02:29:46;5.97;70.95
70830;SHT30;58451;51.550;7.208;2024-02-26T02:31:19;5.96;70.97
70830;SHT30;58451;51.550;7.208;2024-02-26T02:32:51;5.98;70.93
70830;SHT30;58451;51.550;7.208;2024-02-26T02:34:24;5.98;70.92
70830;SHT30;58451;51.550;7.208;2024-02-26T02:35:57;5.97;70.87
70830;SHT30;58451;51.550;7.208;2024-02-26T02:37:29;5.97;70.83
70830;SHT30;58451;51.550;7.208;2024-02-26T02:39:01;5.99;70.83
70830;SHT30;58451;51.550;7.208;2024-02-26T02:40:33;5.99;70.90
70830;SHT30;58451;51.550;7.208;2024-02-26T02:42:05;6.00;70.97
70830;SHT30;58451;51.550;7.208;2024-02-26T02:43:36;6.00;70.95
70830;SHT30;58451;51.550;7.208;2024-02-26T02:45:08;6.01;70.98
70830;SHT30;58451;51.550;7.208;2024-02-26T02:46:41;6.01;70.90
70830;SHT30;58451;51.550;7.208;2024-02-26T02:48:13;6.03;70.92
70830;SHT30;58451;51.550;7.208;2024-02-26T02:49:45;6.04;71.03
70830;SHT30;58451;51.550;7.208;2024-02-26T02:51:17;6.04;70.97
70830;SHT30;58451;51.550;7.208;2024-02-26T02:52:49;6.06;70.93
70830;SHT30;58451;51.550;7.208;2024-02-26T02:54:21;6.07;70.97
70830;SHT30;58451;51.550;7.208;2024-02-26T02:55:53;6.07;70.90
70830;SHT30;58451;51.550;7.208;2024-02-26T02:57:25;6.07;70.93
70830;SHT30;58451;51.550;7.208;2024-02-26T02:58:57;6.07;70.95
70830;SHT30;58451;51.550;7.208;2024-02-26T03:00:29;6.07;70.90
70830;SHT30;58451;51.550;7.208;2024-02-26T03:02:01;6.08;70.70
70830;SHT30;58451;51.550;7.208;2024-02-26T03:03:33;6.07;70.78
70830;SHT30;58451;51.550;7.208;2024-02-26T03:05:05;6.07;70.67
70830;SHT30;58451;51.550;7.208;2024-02-26T03:06:37;6.06;70.68
70830;SHT30;58451;51.550;7.208;2024-02-26T03:08:09;6.07;70.68
70830;SHT30;58451;51.550;7.208;2024-02-26T03:09:41;6.06;70.53
70830;SHT30;58451;51.550;7.208;2024-02-26T03:11:14;6.06;70.60
70830;SHT30;58451;51.550;7.208;2024-02-26T03:12:46;6.08;70.58
70830;SHT30;58451;51.550;7.208;2024-02-26T03:14:18;6.08;70.57
70830;SHT30;58451;51.550;7.208;2024-02-26T03:15:50;6.08;70.50
70830;SHT30;58451;51.550;7.208;2024-02-26T03:17:22;6.11;70.48
70830;SHT30;58451;51.550;7.208;2024-02-26T03:18:56;6.12;70.60
70830;SHT30;58451;51.550;7.208;2024-02-26T03:20:28;6.13;70.58
70830;SHT30;58451;51.550;7.208;2024-02-26T03:22:00;6.13;70.32
70830;SHT30;58451;51.550;7.208;2024-02-26T03:23:31;6.14;70.47
70830;SHT30;58451;51.550;7.208;2024-02-26T03:25:07;6.16;70.52
70830;SHT30;58451;51.550;7.208;2024-02-26T03:26:39;6.16;70.43
70830;SHT30;58451;51.550;7.208;2024-02-26T03:28:11;6.17;70.50
70830;SHT30;58451;51.550;7.208;2024-02-26T03:29:44;6.18;70.53
70830;SHT30;58451;51.550;7.208;2024-02-26T03:31:16;6.20;70.58
70830;SHT30;58451;51.550;7.208;2024-02-26T03:32:47;6.20;70.48
70830;SHT30;58451;51.550;7.208;2024-02-26T03:34:19;6.22;70.52
70830;SHT30;58451;51.550;7.208;2024-02-26T03:35:52;6.22;70.60
70830;SHT30;58451;51.550;7.208;2024-02-26T03:37:24;6.24;70.58
70830;SHT30;58451;51.550;7.208;2024-02-26T03:38:56;6.23;70.57
70830;SHT30;58451;51.550;7.208;2024-02-26T03:40:28;6.23;70.45
70830;SHT30;58451;51.550;7.208;2024-02-26T03:42:00;6.21;70.25
70830;SHT30;58451;51.550;7.208;2024-02-26T03:43:32;6.22;70.27
70830;SHT30;58451;51.550;7.208;2024-02-26T03:45:04;6.22;70.23
70830;SHT30;58451;51.550;7.208;2024-02-26T03:46:36;6.21;70.27
70830;SHT30;58451;51.550;7.208;2024-02-26T03:48:08;6.22;70.23
70830;SHT30;58451;51.550;7.208;2024-02-26T03:49:40;6.21;70.22
70830;SHT30;58451;51.550;7.208;2024-02-26T03:51:12;6.20;70.23
70830;SHT30;58451;51.550;7.208;2024-02-26T03:52:44;6.20;70.28
70830;SHT30;58451;51.550;7.208;2024-02-26T03:54:16;6.19;70.37
70830;SHT30;58451;51.550;7.208;2024-02-26T03:55:48;6.19;70.40
70830;SHT30;58451;51.550;7.208;2024-02-26T03:57:20;6.19;70.42
70830;SHT30;58451;51.550;7.208;2024-02-26T03:58:52;6.18;70.57
70830;SHT30;58451;51.550;7.208;2024-02-26T04:00:25;6.18;70.95
70830;SHT30;58451;51.550;7.208;2024-02-26T04:01:58;6.17;70.93
70830;SHT30;58451;51.550;7.208;2024-02-26T04:03:33;6.16;71.42
70830;SHT30;58451;51.550;7.208;2024-02-26T04:05:09;6.15;71.23
70830;SHT30;58451;51.550;7.208;2024-02-26T04:06:45;6.13;71.47
70830;SHT30;58451;51.550;7.208;2024-02-26T04:08:18;6.12;71.55
70830;SHT30;58451;51.550;7.208;2024-02-26T04:09:50;6.10;71.62
70830;SHT30;58451;51.550;7.208;2024-02-26T04:11:21;6.09;71.67
70830;SHT30;58451;51.550;7.208;2024-02-26T04:12:53;6.07;71.72
70830;SHT30;58451;51.550;7.208;2024-02-26T04:14:25;6.06;71.85
70830;SHT30;58451;51.550;7.208;2024-02-26T04:15:57;6.05;72.02
70830;SHT30;58451;51.550;7.208;2024-02-26T04:17:29;6.05;72.18
70830;SHT30;58451;51.550;7.208;2024-02-26T04:19:01;6.03;72.23
70830;SHT30;58451;51.550;7.208;2024-02-26T04:20:33;6.02;72.45
70830;SHT30;58451;51.550;7.208;2024-02-26T04:22:05;6.01;72.63
70830;SHT30;58451;51.550;7.208;2024-02-26T04:23:37;5.99;72.72
70830;SHT30;58451;51.550;7.208;2024-02-26T04:25:09;5.98;72.97
70830;SHT30;58451;51.550;7.208;2024-02-26T04:26:41;5.96;72.95
70830;SHT30;58451;51.550;7.208;2024-02-26T04:28:13;5.95;72.93
70830;SHT30;58451;51.550;7.208;2024-02-26T04:29:45;5.91;73.25
70830;SHT30;58451;51.550;7.208;2024-02-26T04:31:17;5.89;73.52
70830;SHT30;58451;51.550;7.208;2024-02-26T04:32:49;5.86;73.58
70830;SHT30;58451;51.550;7.208;2024-02-26T04:34:21;5.83;73.62
70830;SHT30;58451;51.550;7.208;2024-02-26T04:35:53;5.80;73.68
70830;SHT30;58451;51.550;7.208;2024-02-26T04:37:25;5.77;74.02
70830;SHT30;58451;51.550;7.208;2024-02-26T04:39:02;5.74;74.08
70830;SHT30;58451;51.550;7.208;2024-02-26T04:40:34;5.71;74.10
70830;SHT30;58451;51.550;7.208;2024-02-26T04:42:06;5.69;74.20
70830;SHT30;58451;51.550;7.208;2024-02-26T04:43:38;5.66;74.60
70830;SHT30;58451;51.550;7.208;2024-02-26T04:45:13;5.65;74.72
70830;SHT30;58451;51.550;7.208;2024-02-26T04:46:45;5.62;74.78
70830;SHT30;58451;51.550;7.208;2024-02-26T04:48:17;5.59;75.00
70830;SHT30;58451;51.550;7.208;2024-02-26T04:49:49;5.58;75.33
70830;SHT30;58451;51.550;7.208;2024-02-26T04:51:22;5.56;75.22
70830;SHT30;58451;51.550;7.208;2024-02-26T04:52:54;5.52;75.40
70830;SHT30;58451;51.550;7.208;2024-02-26T04:54:26;5.53;75.33
70830;SHT30;58451;51.550;7.208;2024-02-26T04:55:58;5.52;75.35
70830;SHT30;58451;51.550;7.208;2024-02-26T04:57:30;5.50;75.37
70830;SHT30;58451;51.550;7.208;2024-02-26T04:59:02;5.49;75.40
70830;SHT30;58451;51.550;7.208;2024-02-26T05:00:33;5.49;75.53
70830;SHT30;58451;51.550;7.208;2024-02-26T05:02:05;5.49;75.80
70830;SHT30;58451;51.550;7.208;2024-02-26T05:03:37;5.48;75.78
70830;SHT30;58451;51.550;7.208;2024-02-26T05:05:10;5.47;75.83
70830;SHT30;58451;51.550;7.208;2024-02-26T05:06:44;5.47;75.75
70830;SHT30;58451;51.550;7.208;2024-02-26T05:08:16;5.47;75.95
70830;SHT30;58451;51.550;7.208;2024-02-26T05:09:48;5.47;75.83
70830;SHT30;58451;51.550;7.208;2024-02-26T05:11:21;5.47;75.82
70830;SHT30;58451;51.550;7.208;2024-02-26T05:12:53;5.47;75.82
70830;SHT30;58451;51.550;7.208;2024-02-26T05:14:25;5.46;75.90
70830;SHT30;58451;51.550;7.208;2024-02-26T05:15:56;5.46;75.98
70830;SHT30;58451;51.550;7.208;2024-02-26T05:17:29;5.45;75.93
70830;SHT30;58451;51.550;7.208;2024-02-26T05:19:01;5.47;75.97
70830;SHT30;58451;51.550;7.208;2024-02-26T05:20:33;5.47;76.03
70830;SHT30;58451;51.550;7.208;2024-02-26T05:22:07;5.46;75.98
70830;SHT30;58451;51.550;7.208;2024-02-26T05:23:39;5.45;76.03
70830;SHT30;58451;51.550;7.208;2024-02-26T05:25:11;5.47;76.10
70830;SHT30;58451;51.550;7.208;2024-02-26T05:26:44;5.48;76.17
70830;SHT30;58451;51.550;7.208;2024-02-26T05:28:17;5.48;76.23
70830;SHT30;58451;51.550;7.208;2024-02-26T05:29:52;5.49;76.20
70830;SHT30;58451;51.550;7.208;2024-02-26T05:31:26;5.50;76.40
70830;SHT30;58451;51.550;7.208;2024-02-26T05:33:00;5.49;76.50
70830;SHT30;58451;51.550;7.208;2024-02-26T05:34:32;5.50;76.60
70830;SHT30;58451;51.550;7.208;2024-02-26T05:36:05;5.49;76.55
70830;SHT30;58451;51.550;7.208;2024-02-26T05:37:38;5.49;76.63
70830;SHT30;58451;51.550;7.208;2024-02-26T05:39:10;5.51;76.45
70830;SHT30;58451;51.550;7.208;2024-02-26T05:40:48;5.52;76.55
70830;SHT30;58451;51.550;7.208;2024-02-26T05:42:23;5.53;76.52
70830;SHT30;58451;51.550;7.208;2024-02-26T05:43:55;5.53;76.53
70830;SHT30;58451;51.550;7.208;2024-02-26T05:45:27;5.53;76.57
70830;SHT30;58451;51.550;7.208;2024-02-26T05:46:59;5.54;76.95
70830;SHT30;58451;51.550;7.208;2024-02-26T05:48:33;5.55;77.02
70830;SHT30;58451;51.550;7.208;2024-02-26T05:50:05;5.54;77.07
70830;SHT30;58451;51.550;7.208;2024-02-26T05:51:37;5.53;76.95
70830;SHT30;58451;51.550;7.208;2024-02-26T05:53:09;5.53;77.03
70830;SHT30;58451;51.550;7.208;2024-02-26T05:54:42;5.54;77.03
70830;SHT30;58451;51.550;7.208;2024-02-26T05:56:13;5.55;77.10
70830;SHT30;58451;51.550;7.208;2024-02-26T05:57:45;5.55;77.08
70830;SHT30;58451;51.550;7.208;2024-02-26T05:59:17;5.55;77.30
70830;SHT30;58451;51.550;7.208;2024-02-26T06:00:49;5.55;77.40
70830;SHT30;58451;51.550;7.208;2024-02-26T06:02:21;5.53;77.43
70830;SHT30;58451;51.550;7.208;2024-02-26T06:03:53;5.52;77.75
70830;SHT30;58451;51.550;7.208;2024-02-26T06:05:25;5.53;77.75
70830;SHT30;58451;51.550;7.208;2024-02-26T06:06:58;5.53;77.58
70830;SHT30;58451;51.550;7.208;2024-02-26T06:08:29;5.54;77.82
70830;SHT30;58451;51.550;7.208;2024-02-26T06:10:02;5.53;77.65
70830;SHT30;58451;51.550;7.208;2024-02-26T06:11:36;5.52;77.88
70830;SHT30;58451;51.550;7.208;2024-02-26T06:13:09;5.51;77.97
70830;SHT30;58451;51.550;7.208;2024-02-26T06:14:41;5.50;77.85
70830;SHT30;58451;51.550;7.208;2024-02-26T06:16:14;5.49;77.87
70830;SHT30;58451;51.550;7.208;2024-02-26T06:17:46;5.48;77.97
70830;SHT30;58451;51.550;7.208;2024-02-26T06:19:18;5.47;77.95
70830;SHT30;58451;51.550;7.208;2024-02-26T06:20:50;5.47;78.07
70830;SHT30;58451;51.550;7.208;2024-02-26T06:22:22;5.46;78.05
70830;SHT30;58451;51.550;7.208;2024-02-26T06:23:54;5.46;78.25
70830;SHT30;58451;51.550;7.208;2024-02-26T06:25:26;5.45;78.25
70830;SHT30;58451;51.550;7.208;2024-02-26T06:26:58;5.44;78.20
70830;SHT30;58451;51.550;7.208;2024-02-26T06:28:30;5.44;78.22
70830;SHT30;58451;51.550;7.208;2024-02-26T06:30:04;5.44;78.40
70830;SHT30;58451;51.550;7.208;2024-02-26T06:31:37;5.44;78.48
70830;SHT30;58451;51.550;7.208;2024-02-26T06:33:09;5.43;78.35
70830;SHT30;58451;51.550;7.208;2024-02-26T06:34:42;5.44;78.33
70830;SHT30;58451;51.550;7.208;2024-02-26T06:36:17;5.45;78.28
70830;SHT30;58451;51.550;7.208;2024-02-26T06:37:49;5.46;78.30
70830;SHT30;58451;51.550;7.208;2024-02-26T06:39:24;5.47;78.27
70830;SHT30;58451;51.550;7.208;2024-02-26T06:40:56;5.47;78.18
70830;SHT30;58451;51.550;7.208;2024-02-26T06:42:28;5.50;78.22
70830;SHT30;58451;51.550;7.208;2024-02-26T06:44:00;5.49;78.17
70830;SHT30;58451;51.550;7.208;2024-02-26T06:45:32;5.51;78.20
70830;SHT30;58451;51.550;7.208;2024-02-26T06:47:04;5.51;78.33
70830;SHT30;58451;51.550;7.208;2024-02-26T06:48:36;5.52;78.27
70830;SHT30;58451;51.550;7.208;2024-02-26T06:50:11;5.53;78.42
70830;SHT30;58451;51.550;7.208;2024-02-26T06:51:43;5.54;78.45
70830;SHT30;58451;51.550;7.208;2024-02-26T06:53:15;5.55;78.42
70830;SHT30;58451;51.550;7.208;2024-02-26T06:54:47;5.55;78.53
70830;SHT30;58451;51.550;7.208;2024-02-26T06:56:22;5.57;78.58
70830;SHT30;58451;51.550;7.208;2024-02-26T06:57:54;5.57;78.45
70830;SHT30;58451;51.550;7.208;2024-02-26T06:59:26;5.56;78.43
70830;SHT30;58451;51.550;7.208;2024-02-26T07:00:58;5.58;78.45
70830;SHT30;58451;51.550;7.208;2024-02-26T07:02:30;5.59;78.50
70830;SHT30;58451;51.550;7.208;2024-02-26T07:04:10;5.60;78.42
70830;SHT30;58451;51.550;7.208;2024-02-26T07:05:42;5.61;78.45
70830;SHT30;58451;51.550;7.208;2024-02-26T07:07:17;5.64;78.55
70830;SHT30;58451;51.550;7.208;2024-02-26T07:08:50;5.66;78.55
70830;SHT30;58451;51.550;7.208;2024-02-26T07:10:22;5.68;78.53
70830;SHT30;58451;51.550;7.208;2024-02-26T07:11:54;5.68;78.55
70830;SHT30;58451;51.550;7.208;2024-02-26T07:13:30;5.70;78.65
70830;SHT30;58451;51.550;7.208;2024-02-26T07:15:02;5.72;78.70
70830;SHT30;58451;51.550;7.208;2024-02-26T07:16:34;5.72;78.60
70830;SHT30;58451;51.550;7.208;2024-02-26T07:18:06;5.73;78.70
70830;SHT30;58451;51.550;7.208;2024-02-26T07:19:38;5.72;78.67
70830;SHT30;58451;51.550;7.208;2024-02-26T07:21:11;5.73;78.62
70830;SHT30;58451;51.550;7.208;2024-02-26T07:22:44;5.75;78.60
70830;SHT30;58451;51.550;7.208;2024-02-26T07:24:16;5.76;78.72
70830;SHT30;58451;51.550;7.208;2024-02-26T07:25:48;5.77;78.72
70830;SHT30;58451;51.550;7.208;2024-02-26T07:27:22;5.78;78.68
70830;SHT30;58451;51.550;7.208;2024-02-26T07:28:54;5.79;78.67
70830;SHT30;58451;51.550;7.208;2024-02-26T07:30:25;5.80;78.70
70830;SHT30;58451;51.550;7.208;2024-02-26T07:31:58;5.81;78.73
70830;SHT30;58451;51.550;7.208;2024-02-26T07:33:29;5.84;78.63
70830;SHT30;58451;51.550;7.208;2024-02-26T07:35:02;5.85;78.55
70830;SHT30;58451;51.550;7.208;2024-02-26T07:36:34;5.88;78.55
70830;SHT30;58451;51.550;7.208;2024-02-26T07:38:06;5.90;78.53
70830;SHT30;58451;51.550;7.208;2024-02-26T07:39:50;5.92;78.50
70830;SHT30;58451;51.550;7.208;2024-02-26T07:41:21;5.93;78.47
70830;SHT30;58451;51.550;7.208;2024-02-26T07:42:53;5.95;78.50
70830;SHT30;58451;51.550;7.208;2024-02-26T07:44:25;5.95;78.43
70830;SHT30;58451;51.550;7.208;2024-02-26T07:45:57;5.97;78.45
70830;SHT30;58451;51.550;7.208;2024-02-26T07:47:29;5.99;78.45
70830;SHT30;58451;51.550;7.208;2024-02-26T07:49:02;5.99;78.52
70830;SHT30;58451;51.550;7.208;2024-02-26T07:50:34;6.01;78.45
70830;SHT30;58451;51.550;7.208;2024-02-26T07:52:06;6.03;78.40
70830;SHT30;58451;51.550;7.208;2024-02-26T07:53:38;6.05;78.43
70830;SHT30;58451;51.550;7.208;2024-02-26T07:55:10;6.07;78.47
70830;SHT30;58451;51.550;7.208;2024-02-26T07:56:42;6.09;78.47
70830;SHT30;58451;51.550;7.208;2024-02-26T07:58:14;6.11;78.47
70830;SHT30;58451;51.550;7.208;2024-02-26T07:59:46;6.14;78.42
70830;SHT30;58451;51.550;7.208;2024-02-26T08:01:21;6.18;78.40
70830;SHT30;58451;51.550;7.208;2024-02-26T08:02:54;6.22;78.40
70830;SHT30;58451;51.550;7.208;2024-02-26T08:04:27;6.24;78.33
70830;SHT30;58451;51.550;7.208;2024-02-26T08:05:59;6.26;78.42
70830;SHT30;58451;51.550;7.208;2024-02-26T08:07:31;6.28;78.37
70830;SHT30;58451;51.550;7.208;2024-02-26T08:09:03;6.29;78.32
70830;SHT30;58451;51.550;7.208;2024-02-26T08:10:36;6.32;78.32
70830;SHT30;58451;51.550;7.208;2024-02-26T08:12:08;6.33;78.22
70830;SHT30;58451;51.550;7.208;2024-02-26T08:13:40;6.35;78.23
70830;SHT30;58451;51.550;7.208;2024-02-26T08:15:12;6.35;78.25
70830;SHT30;58451;51.550;7.208;2024-02-26T08:16:44;6.38;78.20
70830;SHT30;58451;51.550;7.208;2024-02-26T08:18:16;6.37;78.15
70830;SHT30;58451;51.550;7.208;2024-02-26T08:19:48;6.39;78.12
70830;SHT30;58451;51.550;7.208;2024-02-26T08:21:20;6.39;78.17
70830;SHT30;58451;51.550;7.208;2024-02-26T08:22:52;6.39;78.20
70830;SHT30;58451;51.550;7.208;2024-02-26T08:24:24;6.40;78.15
70830;SHT30;58451;51.550;7.208;2024-02-26T08:25:56;6.43;78.12
70830;SHT30;58451;51.550;7.208;2024-02-26T08:27:28;6.43;77.98
70830;SHT30;58451;51.550;7.208;2024-02-26T08:29:00;6.43;78.00
70830;SHT30;58451;51.550;7.208;2024-02-26T08:30:31;6.45;77.93
70830;SHT30;58451;51.550;7.208;2024-02-26T08:32:04;6.46;78.02
70830;SHT30;58451;51.550;7.208;2024-02-26T08:33:37;6.47;78.03
70830;SHT30;58451;51.550;7.208;2024-02-26T08:35:09;6.49;78.00
70830;SHT30;58451;51.550;7.208;2024-02-26T08:36:41;6.53;78.02
70830;SHT30;58451;51.550;7.208;2024-02-26T08:38:14;6.55;78.02
70830;SHT30;58451;51.550;7.208;2024-02-26T08:39:47;6.56;77.93
70830;SHT30;58451;51.550;7.208;2024-02-26T08:41:19;6.57;77.87
70830;SHT30;58451;51.550;7.208;2024-02-26T08:42:51;6.59;77.87
70830;SHT30;58451;51.550;7.208;2024-02-26T08:44:23;6.60;77.82
70830;SHT30;58451;51.550;7.208;2024-02-26T08:45:54;6.62;77.77
70830;SHT30;58451;51.550;7.208;2024-02-26T08:47:27;6.64;77.72
70830;SHT30;58451;51.550;7.208;2024-02-26T08:48:59;6.68;77.72
70830;SHT30;58451;51.550;7.208;2024-02-26T08:50:32;6.71;77.65
70830;SHT30;58451;51.550;7.208;2024-02-26T08:52:04;6.75;77.65
70830;SHT30;58451;51.550;7.208;2024-02-26T08:53:36;6.76;77.58
70830;SHT30;58451;51.550;7.208;2024-02-26T08:55:14;6.79;77.53
70830;SHT30;58451;51.550;7.208;2024-02-26T08:56:46;6.82;77.53
70830;SHT30;58451;51.550;7.208;2024-02-26T08:58:18;6.84;77.52
70830;SHT30;58451;51.550;7.208;2024-02-26T08:59:50;6.84;77.57
70830;SHT30;58451;51.550;7.208;2024-02-26T09:01:22;6.86;77.53
70830;SHT30;58451;51.550;7.208;2024-02-26T09:02:55;6.87;77.45
70830;SHT30;58451;51.550;7.208;2024-02-26T09:04:27;6.88;77.35
70830;SHT30;58451;51.550;7.208;2024-02-26T09:05:59;6.89;77.40
70830;SHT30;58451;51.550;7.208;2024-02-26T09:07:31;6.91;77.32
70830;SHT30;58451;51.550;7.208;2024-02-26T09:09:03;6.91;77.22
70830;SHT30;58451;51.550;7.208;2024-02-26T09:10:35;6.94;77.27
70830;SHT30;58451;51.550;7.208;2024-02-26T09:12:07;6.96;77.23
70830;SHT30;58451;51.550;7.208;2024-02-26T09:19:01;7.07;76.90
70830;SHT30;58451;51.550;7.208;2024-02-26T09:20:34;7.12;76.85
70830;SHT30;58451;51.550;7.208;2024-02-26T09:22:07;7.14;76.75
70830;SHT30;58451;51.550;7.208;2024-02-26T09:23:39;7.15;76.62
70830;SHT30;58451;51.550;7.208;2024-02-26T09:25:12;7.16;76.62
70830;SHT30;58451;51.550;7.208;2024-02-26T09:26:47;7.15;76.67
70830;SHT30;58451;51.550;7.208;2024-02-26T09:28:20;7.16;76.67
70830;SHT30;58451;51.550;7.208;2024-02-26T09:29:52;7.15;76.56
70830;SHT30;58451;51.550;7.208;2024-02-26T09:31:24;7.13;76.60
70830;SHT30;58451;51.550;7.208;2024-02-26T09:32:56;7.13;76.57
70830;SHT30;58451;51.550;7.208;2024-02-26T09:34:29;7.13;76.25
70830;SHT30;58451;51.550;7.208;2024-02-26T09:36:01;7.10;76.20
70830;SHT30;58451;51.550;7.208;2024-02-26T09:37:34;7.11;76.20
70830;SHT30;58451;51.550;7.208;2024-02-26T09:39:08;7.14;76.30
70830;SHT30;58451;51.550;7.208;2024-02-26T09:40:43;7.19;76.33
70830;SHT30;58451;51.550;7.208;2024-02-26T09:42:16;7.23;76.32
70830;SHT30;58451;51.550;7.208;2024-02-26T09:43:51;7.27;76.17
70830;SHT30;58451;51.550;7.208;2024-02-26T09:45:28;7.28;76.05
70830;SHT30;58451;51.550;7.208;2024-02-26T09:47:05;7.30;76.07
70830;SHT30;58451;51.550;7.208;2024-02-26T09:48:42;7.31;75.98
70830;SHT30;58451;51.550;7.208;2024-02-26T09:50:17;7.33;75.92
70830;SHT30;58451;51.550;7.208;2024-02-26T09:51:50;7.36;75.93
70830;SHT30;58451;51.550;7.208;2024-02-26T09:53:25;7.41;75.88
70830;SHT30;58451;51.550;7.208;2024-02-26T09:55:00;7.45;75.88
70830;SHT30;58451;51.550;7.208;2024-02-26T09:56:32;7.51;75.83
70830;SHT30;58451;51.550;7.208;2024-02-26T09:58:08;7.55;75.80